createdAt,value
2017-11-09T00:00:00.665Z,8.24
2017-11-09T00:00:41.220Z,8.23
2017-11-09T00:01:21.801Z,8.15
2017-11-09T00:02:02.367Z,8.2
2017-11-09T00:02:42.922Z,8.09
2017-11-09T00:03:23.483Z,8.15
2017-11-09T00:04:04.050Z,8.15
2017-11-09T00:04:44.611Z,8.13
2017-11-09T00:05:25.197Z,8.16
2017-11-09T00:06:05.791Z,8.18
2017-11-09T00:06:46.357Z,8.13
2017-11-09T00:07:26.927Z,8
2017-11-09T00:08:07.493Z,8.08
2017-11-09T00:08:48.066Z,8.16
2017-11-09T00:09:28.663Z,8.03
2017-11-09T00:10:09.245Z,8.06
2017-11-09T00:10:49.876Z,8.05
2017-11-09T00:11:30.416Z,8.05
2017-11-09T00:12:10.990Z,8.08
2017-11-09T00:12:51.578Z,7.9
2017-11-09T00:13:32.149Z,8
2017-11-09T00:14:12.720Z,8.03
2017-11-09T00:14:53.291Z,8.06
2017-11-09T00:15:33.867Z,8.09
2017-11-09T00:16:14.439Z,8.1
2017-11-09T00:16:55.009Z,8.03
2017-11-09T00:17:35.587Z,8.05
2017-11-09T00:18:16.155Z,8.01
2017-11-09T00:18:56.705Z,8.06
2017-11-09T00:19:37.272Z,8.15
2017-11-09T00:20:17.856Z,8.1
2017-11-09T00:20:58.424Z,8.15
2017-11-09T00:21:38.988Z,8.08
2017-11-09T00:22:19.603Z,8.06
2017-11-09T00:23:00.194Z,8.03
2017-11-09T00:23:40.780Z,8.05
2017-11-09T00:24:21.346Z,7.98
2017-11-09T00:25:01.901Z,8.03
2017-11-09T00:25:42.459Z,8.05
2017-11-09T00:26:23.040Z,8
2017-11-09T00:27:03.625Z,8.01
2017-11-09T00:27:44.201Z,8.03
2017-11-09T00:28:24.765Z,8
2017-11-09T00:29:05.324Z,8.06
2017-11-09T00:29:45.916Z,8.05
2017-11-09T00:30:26.485Z,8.05
2017-11-09T00:31:07.065Z,8.03
2017-11-09T00:31:47.622Z,8.01
2017-11-09T00:32:28.197Z,8.03
2017-11-09T00:33:08.776Z,8.1
2017-11-09T00:33:49.353Z,7.98
2017-11-09T00:34:29.917Z,8.05
2017-11-09T00:35:10.520Z,8.05
2017-11-09T00:35:51.089Z,7.95
2017-11-09T00:36:31.989Z,8.03
2017-11-09T00:37:12.562Z,8.01
2017-11-09T00:37:53.124Z,8.06
2017-11-09T00:38:33.692Z,7.98
2017-11-09T00:39:14.259Z,8.01
2017-11-09T00:39:54.827Z,8.03
2017-11-09T00:40:35.408Z,8.05
2017-11-09T00:41:15.979Z,8.08
2017-11-09T00:41:56.528Z,8.01
2017-11-09T00:42:37.086Z,8.15
2017-11-09T00:43:17.644Z,8.18
2017-11-09T00:43:58.210Z,8.16
2017-11-09T00:44:38.772Z,8.12
2017-11-09T00:45:19.329Z,8.15
2017-11-09T00:45:59.900Z,8.16
2017-11-09T00:46:40.456Z,8.16
2017-11-09T00:47:21.032Z,8.13
2017-11-09T00:48:01.591Z,8.12
2017-11-09T00:48:42.155Z,8.12
2017-11-09T00:49:22.723Z,8.18
2017-11-09T00:50:03.315Z,8.09
2017-11-09T00:50:43.937Z,8.01
2017-11-09T00:51:24.500Z,8.05
2017-11-09T00:52:05.066Z,8.13
2017-11-09T00:52:45.639Z,8.08
2017-11-09T00:53:26.191Z,8.13
2017-11-09T00:54:06.773Z,8.15
2017-11-09T00:54:47.331Z,8.1
2017-11-09T00:55:27.898Z,8.13
2017-11-09T00:56:08.481Z,8.12
2017-11-09T00:56:49.050Z,8.15
2017-11-09T00:57:29.610Z,8.16
2017-11-09T00:58:10.193Z,8.13
2017-11-09T00:58:50.772Z,8.16
2017-11-09T00:59:31.362Z,8.16
2017-11-09T01:00:11.921Z,8.12
2017-11-09T01:00:52.481Z,8.16
2017-11-09T01:01:33.039Z,8.15
2017-11-09T01:02:13.626Z,8.13
2017-11-09T01:02:54.187Z,8.12
2017-11-09T01:03:34.757Z,8.12
2017-11-09T01:04:15.322Z,8.16
2017-11-09T01:04:55.893Z,8.13
2017-11-09T01:05:36.473Z,8.12
2017-11-09T01:06:17.044Z,8.09
2017-11-09T01:06:57.612Z,8.09
2017-11-09T01:07:38.191Z,8.09
2017-11-09T01:08:18.749Z,8
2017-11-09T01:08:59.326Z,7.88
2017-11-09T01:09:39.917Z,7.9
2017-11-09T01:10:20.462Z,7.95
2017-11-09T01:11:01.031Z,8
2017-11-09T01:11:41.593Z,7.93
2017-11-09T01:12:22.215Z,8
2017-11-09T01:13:02.769Z,7.95
2017-11-09T01:13:43.343Z,7.93
2017-11-09T01:14:23.929Z,7.94
2017-11-09T01:15:04.506Z,7.91
2017-11-09T01:15:45.076Z,7.88
2017-11-09T01:16:25.690Z,8.01
2017-11-09T01:17:06.262Z,7.95
2017-11-09T01:17:46.831Z,7.95
2017-11-09T01:18:27.394Z,8
2017-11-09T01:19:07.948Z,7.97
2017-11-09T01:19:48.501Z,7.93
2017-11-09T01:20:29.071Z,8.01
2017-11-09T01:21:09.654Z,8.01
2017-11-09T01:21:50.229Z,8
2017-11-09T01:22:30.806Z,8.01
2017-11-09T01:23:11.413Z,8.06
2017-11-09T01:23:51.960Z,7.91
2017-11-09T01:24:32.535Z,7.88
2017-11-09T01:25:13.122Z,7.95
2017-11-09T01:25:53.692Z,7.94
2017-11-09T01:26:34.266Z,7.97
2017-11-09T01:27:14.828Z,7.88
2017-11-09T01:27:55.404Z,7.85
2017-11-09T01:28:35.986Z,7.9
2017-11-09T01:29:16.580Z,7.94
2017-11-09T01:29:57.141Z,7.95
2017-11-09T01:30:37.746Z,7.91
2017-11-09T01:31:18.322Z,7.98
2017-11-09T01:31:58.902Z,7.9
2017-11-09T01:32:39.503Z,7.91
2017-11-09T01:33:20.086Z,7.87
2017-11-09T01:34:00.653Z,7.98
2017-11-09T01:34:41.925Z,7.93
2017-11-09T01:35:22.511Z,7.93
2017-11-09T01:36:03.100Z,7.91
2017-11-09T01:36:43.663Z,8.08
2017-11-09T01:37:24.227Z,7.97
2017-11-09T01:38:04.811Z,8
2017-11-09T01:38:45.388Z,7.88
2017-11-09T01:39:25.953Z,7.94
2017-11-09T01:40:06.529Z,7.94
2017-11-09T01:40:47.109Z,7.88
2017-11-09T01:41:27.674Z,7.91
2017-11-09T01:42:08.257Z,7.95
2017-11-09T01:42:48.838Z,8.01
2017-11-09T01:43:29.398Z,7.95
2017-11-09T01:44:09.960Z,7.95
2017-11-09T01:44:50.546Z,8.01
2017-11-09T01:45:31.159Z,8.01
2017-11-09T01:46:11.732Z,8.03
2017-11-09T01:46:52.315Z,8.01
2017-11-09T01:47:32.899Z,8.05
2017-11-09T01:48:13.477Z,8.06
2017-11-09T01:48:54.056Z,8
2017-11-09T01:49:34.647Z,8
2017-11-09T01:50:15.219Z,8.05
2017-11-09T01:50:55.796Z,8.1
2017-11-09T01:51:36.366Z,8.15
2017-11-09T01:52:16.964Z,8.12
2017-11-09T01:52:57.513Z,8.15
2017-11-09T01:53:38.079Z,8.18
2017-11-09T01:54:18.662Z,8.15
2017-11-09T01:54:59.255Z,8.1
2017-11-09T01:55:39.843Z,8.16
2017-11-09T01:56:20.415Z,8.12
2017-11-09T01:57:00.964Z,8.05
2017-11-09T01:57:41.527Z,8.05
2017-11-09T01:58:22.147Z,8.09
2017-11-09T01:59:02.766Z,7.98
2017-11-09T01:59:43.330Z,8
2017-11-09T02:00:23.905Z,8.05
2017-11-09T02:01:04.464Z,7.98
2017-11-09T02:01:45.026Z,8.03
2017-11-09T02:02:25.599Z,7.98
2017-11-09T02:03:06.174Z,7.98
2017-11-09T02:03:46.745Z,8
2017-11-09T02:04:27.338Z,8.08
2017-11-09T02:05:07.908Z,8.01
2017-11-09T02:05:48.508Z,7.97
2017-11-09T02:06:29.130Z,8.05
2017-11-09T02:07:09.692Z,8.15
2017-11-09T02:07:50.257Z,8
2017-11-09T02:08:30.835Z,8.05
2017-11-09T02:09:11.401Z,8.03
2017-11-09T02:09:51.993Z,8.03
2017-11-09T02:10:32.574Z,8.05
2017-11-09T02:11:13.153Z,8.08
2017-11-09T02:11:53.728Z,8.03
2017-11-09T02:12:34.328Z,8.06
2017-11-09T02:13:14.905Z,8.05
2017-11-09T02:13:55.464Z,8.06
2017-11-09T02:14:36.064Z,8.03
2017-11-09T02:15:16.662Z,8.09
2017-11-09T02:15:57.216Z,8.03
2017-11-09T02:16:37.824Z,8.06
2017-11-09T02:17:18.407Z,8.06
2017-11-09T02:17:58.976Z,8.05
2017-11-09T02:18:39.557Z,8.05
2017-11-09T02:19:20.148Z,8.01
2017-11-09T02:20:00.753Z,8.03
2017-11-09T02:20:41.329Z,8.05
2017-11-09T02:21:21.936Z,8.01
2017-11-09T02:22:02.496Z,8.01
2017-11-09T02:22:43.071Z,8.03
2017-11-09T02:23:23.632Z,8
2017-11-09T02:24:04.207Z,8.01
2017-11-09T02:24:44.772Z,8.05
2017-11-09T02:25:25.385Z,8.01
2017-11-09T02:26:05.961Z,8.03
2017-11-09T02:26:46.521Z,8.05
2017-11-09T02:27:27.100Z,8.05
2017-11-09T02:28:07.696Z,8.01
2017-11-09T02:28:48.278Z,8.05
2017-11-09T02:29:28.842Z,8.08
2017-11-09T02:30:09.419Z,8.06
2017-11-09T02:30:49.998Z,8.12
2017-11-09T02:31:30.584Z,8.1
2017-11-09T02:32:11.165Z,8.05
2017-11-09T02:32:51.782Z,8.01
2017-11-09T02:33:32.323Z,8.18
2017-11-09T02:34:12.908Z,8.12
2017-11-09T02:34:53.502Z,8.15
2017-11-09T02:35:34.070Z,8.13
2017-11-09T02:36:14.637Z,8.16
2017-11-09T02:36:55.216Z,8.05
2017-11-09T02:37:35.818Z,8.13
2017-11-09T02:38:16.399Z,8.13
2017-11-09T02:38:56.976Z,8.13
2017-11-09T02:39:37.540Z,8.12
2017-11-09T02:40:18.131Z,8.16
2017-11-09T02:40:58.702Z,8.23
2017-11-09T02:41:39.280Z,8.15
2017-11-09T02:42:19.846Z,8.16
2017-11-09T02:43:00.425Z,8.19
2017-11-09T02:43:41.024Z,8.13
2017-11-09T02:44:21.598Z,8.16
2017-11-09T02:45:02.176Z,8.15
2017-11-09T02:45:42.771Z,8.18
2017-11-09T02:46:23.323Z,8.2
2017-11-09T02:47:03.905Z,8.19
2017-11-09T02:47:44.567Z,8.24
2017-11-09T02:48:25.144Z,8.26
2017-11-09T02:49:05.743Z,8.28
2017-11-09T02:49:46.344Z,8.24
2017-11-09T02:50:26.917Z,8.2
2017-11-09T02:51:07.469Z,8.27
2017-11-09T02:51:48.060Z,8.24
2017-11-09T02:52:28.628Z,8.28
2017-11-09T02:53:09.205Z,8.19
2017-11-09T02:53:49.789Z,8.24
2017-11-09T02:54:30.363Z,8.24
2017-11-09T02:55:10.941Z,8.2
2017-11-09T02:55:51.528Z,8.26
2017-11-09T02:56:32.094Z,8.24
2017-11-09T02:57:12.669Z,8.18
2017-11-09T02:57:53.235Z,8.16
2017-11-09T02:58:33.802Z,8.13
2017-11-09T02:59:14.390Z,8.19
2017-11-09T02:59:54.962Z,8.1
2017-11-09T03:00:35.523Z,8.06
2017-11-09T03:01:16.096Z,8.03
2017-11-09T03:01:56.715Z,8.01
2017-11-09T03:02:37.306Z,8.05
2017-11-09T03:03:17.870Z,8.08
2017-11-09T03:03:58.438Z,8.05
2017-11-09T03:04:39.014Z,8.01
2017-11-09T03:05:19.617Z,8.08
2017-11-09T03:06:00.212Z,8.05
2017-11-09T03:06:40.787Z,8.06
2017-11-09T03:07:21.364Z,8.01
2017-11-09T03:08:01.939Z,8.1
2017-11-09T03:08:42.530Z,8.06
2017-11-09T03:09:23.083Z,8.01
2017-11-09T03:10:03.675Z,8.03
2017-11-09T03:10:44.245Z,8.01
2017-11-09T03:11:24.805Z,8.05
2017-11-09T03:12:05.367Z,8.06
2017-11-09T03:12:45.940Z,8.01
2017-11-09T03:13:26.499Z,8.03
2017-11-09T03:14:07.077Z,8.03
2017-11-09T03:14:47.639Z,7.91
2017-11-09T03:15:28.215Z,8.01
2017-11-09T03:16:08.784Z,7.93
2017-11-09T03:16:49.351Z,7.95
2017-11-09T03:17:29.938Z,7.93
2017-11-09T03:18:10.514Z,7.88
2017-11-09T03:18:51.096Z,7.9
2017-11-09T03:19:31.657Z,7.98
2017-11-09T03:20:12.237Z,7.82
2017-11-09T03:20:52.801Z,7.94
2017-11-09T03:21:33.367Z,7.88
2017-11-09T03:22:13.951Z,7.88
2017-11-09T03:22:54.514Z,7.85
2017-11-09T03:23:35.087Z,7.94
2017-11-09T03:24:15.713Z,7.83
2017-11-09T03:24:56.309Z,7.87
2017-11-09T03:25:36.896Z,7.9
2017-11-09T03:26:17.453Z,7.85
2017-11-09T03:26:58.018Z,7.88
2017-11-09T03:27:38.572Z,7.82
2017-11-09T03:28:19.126Z,8
2017-11-09T03:28:59.696Z,7.88
2017-11-09T03:29:40.256Z,7.97
2017-11-09T03:30:21.079Z,7.93
2017-11-09T03:31:01.626Z,7.9
2017-11-09T03:31:42.197Z,7.97
2017-11-09T03:32:22.755Z,8
2017-11-09T03:33:03.352Z,7.94
2017-11-09T03:33:43.936Z,8
2017-11-09T03:34:24.485Z,8.06
2017-11-09T03:35:05.105Z,8
2017-11-09T03:35:45.668Z,7.91
2017-11-09T03:36:26.230Z,7.98
2017-11-09T03:37:06.792Z,7.9
2017-11-09T03:37:47.353Z,7.85
2017-11-09T03:38:27.924Z,7.95
2017-11-09T03:39:08.500Z,7.9
2017-11-09T03:39:49.060Z,7.85
2017-11-09T03:40:29.617Z,7.83
2017-11-09T03:41:10.188Z,8
2017-11-09T03:41:50.750Z,7.9
2017-11-09T03:42:31.367Z,8.01
2017-11-09T03:43:11.943Z,7.91
2017-11-09T03:43:52.506Z,7.94
2017-11-09T03:44:33.074Z,8
2017-11-09T03:45:13.639Z,7.87
2017-11-09T03:45:54.203Z,7.82
2017-11-09T03:46:34.772Z,7.97
2017-11-09T03:47:15.349Z,7.91
2017-11-09T03:47:55.923Z,8
2017-11-09T03:48:36.511Z,7.98
2017-11-09T03:49:17.094Z,7.94
2017-11-09T03:49:57.672Z,7.97
2017-11-09T03:50:38.210Z,7.91
2017-11-09T03:51:18.790Z,7.87
2017-11-09T03:51:59.363Z,7.97
2017-11-09T03:52:39.942Z,7.85
2017-11-09T03:53:20.516Z,7.85
2017-11-09T03:54:01.099Z,7.91
2017-11-09T03:54:41.665Z,7.9
2017-11-09T03:55:22.240Z,7.9
2017-11-09T03:56:02.796Z,7.87
2017-11-09T03:56:43.361Z,7.83
2017-11-09T03:57:23.929Z,7.97
2017-11-09T03:58:04.486Z,7.94
2017-11-09T03:58:45.051Z,7.88
2017-11-09T03:59:25.604Z,7.95
2017-11-09T04:00:06.195Z,7.95
2017-11-09T04:00:46.761Z,7.85
2017-11-09T04:01:27.333Z,7.88
2017-11-09T04:02:07.897Z,7.87
2017-11-09T04:02:48.457Z,7.88
2017-11-09T04:03:29.030Z,7.97
2017-11-09T04:04:09.593Z,7.94
2017-11-09T04:04:50.153Z,7.9
2017-11-09T04:05:30.718Z,7.8
2017-11-09T04:06:11.288Z,7.88
2017-11-09T04:06:51.850Z,7.83
2017-11-09T04:07:32.471Z,7.95
2017-11-09T04:08:13.036Z,7.95
2017-11-09T04:08:53.595Z,7.93
2017-11-09T04:09:34.150Z,8
2017-11-09T04:10:14.721Z,7.97
2017-11-09T04:10:55.294Z,7.9
2017-11-09T04:11:35.870Z,7.9
2017-11-09T04:12:16.426Z,7.97
2017-11-09T04:12:57.004Z,7.93
2017-11-09T04:13:37.569Z,7.83
2017-11-09T04:14:18.175Z,7.85
2017-11-09T04:14:58.757Z,7.85
2017-11-09T04:15:39.354Z,7.88
2017-11-09T04:16:19.935Z,7.88
2017-11-09T04:17:00.480Z,7.87
2017-11-09T04:17:41.067Z,7.87
2017-11-09T04:18:21.643Z,7.83
2017-11-09T04:19:02.203Z,7.83
2017-11-09T04:19:42.774Z,7.85
2017-11-09T04:20:23.343Z,7.98
2017-11-09T04:21:03.895Z,7.95
2017-11-09T04:21:44.476Z,7.97
2017-11-09T04:22:25.090Z,8
2017-11-09T04:23:05.654Z,7.95
2017-11-09T04:23:46.201Z,8.05
2017-11-09T04:24:26.772Z,7.93
2017-11-09T04:25:07.344Z,7.9
2017-11-09T04:25:47.909Z,7.93
2017-11-09T04:26:28.461Z,7.94
2017-11-09T04:27:09.021Z,7.95
2017-11-09T04:27:49.590Z,8.06
2017-11-09T04:28:30.181Z,7.94
2017-11-09T04:29:10.747Z,7.93
2017-11-09T04:29:51.295Z,8
2017-11-09T04:30:31.853Z,7.97
2017-11-09T04:31:12.414Z,8.01
2017-11-09T04:31:52.977Z,8.1
2017-11-09T04:32:33.547Z,8.01
2017-11-09T04:33:14.102Z,8.06
2017-11-09T04:33:54.673Z,8.01
2017-11-09T04:34:35.273Z,8.06
2017-11-09T04:35:15.854Z,8.05
2017-11-09T04:35:56.407Z,8.12
2017-11-09T04:36:36.983Z,8.16
2017-11-09T04:37:17.555Z,8.12
2017-11-09T04:37:58.124Z,8.15
2017-11-09T04:38:38.698Z,8.18
2017-11-09T04:39:19.270Z,8.12
2017-11-09T04:39:59.846Z,8.08
2017-11-09T04:40:40.409Z,8.13
2017-11-09T04:41:21.011Z,8.15
2017-11-09T04:42:01.590Z,8.12
2017-11-09T04:42:42.160Z,8.13
2017-11-09T04:43:22.740Z,8.12
2017-11-09T04:44:03.317Z,8.18
2017-11-09T04:44:43.905Z,8.05
2017-11-09T04:45:24.469Z,8.05
2017-11-09T04:46:05.067Z,8.13
2017-11-09T04:46:45.633Z,8.15
2017-11-09T04:47:26.200Z,8.09
2017-11-09T04:48:06.777Z,8.15
2017-11-09T04:48:47.364Z,8.05
2017-11-09T04:49:27.951Z,8.13
2017-11-09T04:50:08.508Z,8.08
2017-11-09T04:50:49.079Z,8.12
2017-11-09T04:51:29.662Z,8.13
2017-11-09T04:52:10.289Z,8.15
2017-11-09T04:52:50.877Z,8.08
2017-11-09T04:53:31.457Z,8.03
2017-11-09T04:54:12.006Z,8.03
2017-11-09T04:54:52.560Z,8.08
2017-11-09T04:55:33.132Z,8.03
2017-11-09T04:56:13.706Z,8.05
2017-11-09T04:56:54.270Z,8.18
2017-11-09T04:57:34.855Z,8.12
2017-11-09T04:58:15.414Z,8.09
2017-11-09T04:58:55.984Z,8.12
2017-11-09T04:59:36.557Z,8.13
2017-11-09T05:00:17.120Z,8.15
2017-11-09T05:00:57.715Z,8.15
2017-11-09T05:01:38.283Z,8.15
2017-11-09T05:02:18.854Z,8.13
2017-11-09T05:02:59.423Z,8.15
2017-11-09T05:03:40.000Z,8.15
2017-11-09T05:04:20.598Z,8.18
2017-11-09T05:05:01.160Z,8.18
2017-11-09T05:05:41.721Z,8.13
2017-11-09T05:06:22.276Z,8.12
2017-11-09T05:07:02.853Z,8.13
2017-11-09T05:07:43.431Z,8.15
2017-11-09T05:08:23.999Z,8.13
2017-11-09T05:09:04.553Z,8.26
2017-11-09T05:09:45.119Z,8.16
2017-11-09T05:10:25.689Z,8.23
2017-11-09T05:11:06.251Z,8.23
2017-11-09T05:11:46.824Z,8.2
2017-11-09T05:12:27.565Z,8.23
2017-11-09T05:13:08.530Z,8.18
2017-11-09T05:13:49.106Z,8.19
2017-11-09T05:14:29.669Z,8.15
2017-11-09T05:15:10.394Z,8.13
2017-11-09T05:15:51.004Z,8.15
2017-11-09T05:16:31.793Z,8.19
2017-11-09T05:17:12.412Z,8.13
2017-11-09T05:17:52.985Z,8.24
2017-11-09T05:18:33.649Z,8.19
2017-11-09T05:19:14.203Z,8.23
2017-11-09T05:19:54.778Z,8.2
2017-11-09T05:20:35.375Z,8.23
2017-11-09T05:21:15.946Z,8.27
2017-11-09T05:21:56.514Z,8.27
2017-11-09T05:22:37.082Z,8.19
2017-11-09T05:23:17.662Z,8.24
2017-11-09T05:23:58.216Z,8.19
2017-11-09T05:24:38.793Z,8.23
2017-11-09T05:25:19.356Z,8.24
2017-11-09T05:25:59.929Z,8.24
2017-11-09T05:26:40.506Z,8.28
2017-11-09T05:27:21.091Z,8.23
2017-11-09T05:28:01.650Z,8.24
2017-11-09T05:28:42.205Z,8.23
2017-11-09T05:29:22.774Z,8.26
2017-11-09T05:30:03.353Z,8.19
2017-11-09T05:30:43.913Z,8.23
2017-11-09T05:31:24.469Z,8.2
2017-11-09T05:32:05.068Z,8.19
2017-11-09T05:32:45.604Z,8.24
2017-11-09T05:33:26.177Z,8.18
2017-11-09T05:34:06.755Z,8.24
2017-11-09T05:34:47.333Z,8.24
2017-11-09T05:35:27.914Z,8.18
2017-11-09T05:36:08.466Z,8.28
2017-11-09T05:36:49.088Z,8.2
2017-11-09T05:37:29.671Z,8.24
2017-11-09T05:38:10.249Z,8.28
2017-11-09T05:38:50.825Z,8.2
2017-11-09T05:39:31.391Z,8.2
2017-11-09T05:40:11.957Z,8.28
2017-11-09T05:40:52.517Z,8.2
2017-11-09T05:41:33.103Z,8.24
2017-11-09T05:42:13.672Z,8.18
2017-11-09T05:42:54.242Z,8.27
2017-11-09T05:43:34.828Z,8.24
2017-11-09T05:44:16.393Z,8.23
2017-11-09T05:44:56.963Z,8.24
2017-11-09T05:45:37.552Z,8.26
2017-11-09T05:46:18.131Z,8.28
2017-11-09T05:46:58.697Z,8.2
2017-11-09T05:47:39.271Z,8.2
2017-11-09T05:48:19.845Z,8.27
2017-11-09T05:49:00.410Z,8.24
2017-11-09T05:49:40.974Z,8.2
2017-11-09T05:50:21.570Z,8.31
2017-11-09T05:51:02.188Z,8.24
2017-11-09T05:51:42.758Z,8.24
2017-11-09T05:52:23.355Z,8.26
2017-11-09T05:53:03.909Z,8.2
2017-11-09T05:53:44.469Z,8.24
2017-11-09T05:54:25.031Z,8.27
2017-11-09T05:55:05.600Z,8.31
2017-11-09T05:55:46.161Z,8.33
2017-11-09T05:56:26.738Z,8.31
2017-11-09T05:57:07.299Z,8.33
2017-11-09T05:57:47.902Z,8.27
2017-11-09T05:58:28.475Z,8.31
2017-11-09T05:59:09.059Z,8.34
2017-11-09T05:59:49.649Z,8.27
2017-11-09T06:00:30.227Z,8.31
2017-11-09T06:01:10.814Z,8.31
2017-11-09T06:01:51.424Z,8.28
2017-11-09T06:02:31.982Z,8.36
2017-11-09T06:03:12.568Z,8.33
2017-11-09T06:03:53.145Z,8.31
2017-11-09T06:04:33.695Z,8.34
2017-11-09T06:05:14.264Z,8.38
2017-11-09T06:05:54.824Z,8.34
2017-11-09T06:06:35.388Z,8.41
2017-11-09T06:07:15.950Z,8.33
2017-11-09T06:07:56.522Z,8.36
2017-11-09T06:08:37.104Z,8.36
2017-11-09T06:09:17.679Z,8.41
2017-11-09T06:09:58.247Z,8.37
2017-11-09T06:10:38.829Z,8.34
2017-11-09T06:11:19.413Z,8.36
2017-11-09T06:12:00.012Z,8.38
2017-11-09T06:12:40.569Z,8.31
2017-11-09T06:13:21.162Z,8.37
2017-11-09T06:14:01.743Z,8.38
2017-11-09T06:14:42.324Z,8.28
2017-11-09T06:15:22.922Z,8.34
2017-11-09T06:16:03.470Z,8.36
2017-11-09T06:16:44.048Z,8.34
2017-11-09T06:17:24.612Z,8.33
2017-11-09T06:18:05.186Z,8.28
2017-11-09T06:18:45.749Z,8.3
2017-11-09T06:19:26.343Z,8.36
2017-11-09T06:20:06.921Z,8.34
2017-11-09T06:20:47.486Z,8.33
2017-11-09T06:21:28.060Z,8.27
2017-11-09T06:22:08.634Z,8.31
2017-11-09T06:22:49.199Z,8.28
2017-11-09T06:23:29.768Z,8.34
2017-11-09T06:24:10.352Z,8.42
2017-11-09T06:24:50.925Z,8.44
2017-11-09T06:25:31.501Z,8.61
2017-11-09T06:26:12.068Z,8.84
2017-11-09T06:26:52.631Z,8.95
2017-11-09T06:27:33.215Z,9.18
2017-11-09T06:28:13.785Z,9.39
2017-11-09T06:28:54.343Z,9.54
2017-11-09T06:29:34.913Z,9.64
2017-11-09T06:30:15.473Z,9.72
2017-11-09T06:30:56.042Z,9.79
2017-11-09T06:31:36.619Z,10.09
2017-11-09T06:32:17.177Z,10.1
2017-11-09T06:32:57.739Z,10.19
2017-11-09T06:33:38.330Z,10.42
2017-11-09T06:34:18.886Z,10.54
2017-11-09T06:34:59.451Z,10.57
2017-11-09T06:35:40.007Z,10.74
2017-11-09T06:36:20.593Z,10.82
2017-11-09T06:37:01.171Z,10.94
2017-11-09T06:37:41.734Z,11.05
2017-11-09T06:38:22.372Z,11.05
2017-11-09T06:39:02.943Z,11.14
2017-11-09T06:39:43.517Z,11.25
2017-11-09T06:40:24.102Z,11.36
2017-11-09T06:41:04.676Z,11.43
2017-11-09T06:41:45.251Z,11.45
2017-11-09T06:42:25.813Z,11.51
2017-11-09T06:43:06.434Z,11.51
2017-11-09T06:43:47.000Z,11.59
2017-11-09T06:44:27.558Z,11.54
2017-11-09T06:45:08.130Z,11.63
2017-11-09T06:45:48.736Z,11.7
2017-11-09T06:46:29.303Z,11.65
2017-11-09T06:47:09.894Z,11.75
2017-11-09T06:47:50.498Z,11.7
2017-11-09T06:48:31.038Z,11.8
2017-11-09T06:49:11.601Z,11.78
2017-11-09T06:49:52.193Z,11.81
2017-11-09T06:50:32.816Z,11.86
2017-11-09T06:51:13.386Z,11.91
2017-11-09T06:51:53.998Z,12.02
2017-11-09T06:52:34.555Z,11.95
2017-11-09T06:53:15.138Z,12.06
2017-11-09T06:53:56.325Z,12.07
2017-11-09T06:54:37.127Z,12.15
2017-11-09T06:55:17.688Z,12.17
2017-11-09T06:55:58.380Z,12.2
2017-11-09T06:56:38.956Z,12.1
2017-11-09T06:57:19.552Z,12.24
2017-11-09T06:58:00.139Z,12.22
2017-11-09T06:58:41.178Z,12.21
2017-11-09T06:59:21.757Z,12.21
2017-11-09T07:00:02.416Z,12.25
2017-11-09T07:00:43.208Z,12.24
2017-11-09T07:01:23.934Z,12.21
2017-11-09T07:02:04.515Z,12.24
2017-11-09T07:02:45.801Z,12.37
2017-11-09T07:03:26.638Z,12.37
2017-11-09T07:04:07.303Z,12.27
2017-11-09T07:04:48.317Z,12.37
2017-11-09T07:05:29.378Z,12.36
2017-11-09T07:06:10.020Z,12.35
2017-11-09T07:06:50.614Z,12.46
2017-11-09T07:07:31.176Z,12.45
2017-11-09T07:08:12.377Z,12.47
2017-11-09T07:08:53.022Z,12.42
2017-11-09T07:09:33.610Z,12.5
2017-11-09T07:10:14.252Z,12.47
2017-11-09T07:10:54.835Z,12.49
2017-11-09T07:11:35.408Z,12.58
2017-11-09T07:12:15.997Z,12.55
2017-11-09T07:12:56.603Z,12.54
2017-11-09T07:13:37.154Z,12.55
2017-11-09T07:14:17.741Z,12.62
2017-11-09T07:14:58.317Z,12.58
2017-11-09T07:15:38.910Z,12.62
2017-11-09T07:16:19.489Z,12.58
2017-11-09T07:17:00.099Z,12.54
2017-11-09T07:17:40.688Z,12.47
2017-11-09T07:18:21.277Z,12.47
2017-11-09T07:19:01.866Z,12.46
2017-11-09T07:19:42.438Z,12.42
2017-11-09T07:20:23.025Z,12.4
2017-11-09T07:21:03.604Z,12.46
2017-11-09T07:21:44.193Z,12.37
2017-11-09T07:22:24.779Z,12.28
2017-11-09T07:23:05.347Z,12.29
2017-11-09T07:23:45.906Z,12.2
2017-11-09T07:24:26.499Z,12.15
2017-11-09T07:25:07.105Z,12.17
2017-11-09T07:25:47.696Z,12.12
2017-11-09T07:26:28.287Z,12.03
2017-11-09T07:27:08.839Z,12.04
2017-11-09T07:27:49.416Z,12.06
2017-11-09T07:28:30.006Z,12.03
2017-11-09T07:29:10.606Z,12.02
2017-11-09T07:29:51.181Z,12.03
2017-11-09T07:30:31.843Z,12.09
2017-11-09T07:31:12.410Z,12.03
2017-11-09T07:31:52.978Z,12.15
2017-11-09T07:32:33.568Z,12.09
2017-11-09T07:33:14.139Z,11.99
2017-11-09T07:33:54.704Z,11.83
2017-11-09T07:34:35.285Z,11.75
2017-11-09T07:35:15.864Z,11.62
2017-11-09T07:35:56.429Z,11.4
2017-11-09T07:36:37.005Z,11.22
2017-11-09T07:37:17.565Z,11.07
2017-11-09T07:37:58.120Z,10.96
2017-11-09T07:38:38.735Z,10.87
2017-11-09T07:39:19.301Z,10.76
2017-11-09T07:39:59.866Z,10.63
2017-11-09T07:40:40.450Z,10.37
2017-11-09T07:41:21.006Z,10.33
2017-11-09T07:42:01.626Z,10.19
2017-11-09T07:42:42.217Z,10.17
2017-11-09T07:43:22.792Z,10.09
2017-11-09T07:44:03.364Z,10.01
2017-11-09T07:44:43.953Z,9.94
2017-11-09T07:45:24.513Z,9.86
2017-11-09T07:46:05.096Z,9.84
2017-11-09T07:46:45.670Z,9.74
2017-11-09T07:47:26.222Z,9.69
2017-11-09T07:48:06.849Z,9.79
2017-11-09T07:48:47.654Z,9.68
2017-11-09T07:49:28.211Z,9.61
2017-11-09T07:50:08.873Z,9.51
2017-11-09T07:50:49.454Z,9.56
2017-11-09T07:51:30.023Z,9.58
2017-11-09T07:52:10.598Z,9.47
2017-11-09T07:52:51.174Z,9.5
2017-11-09T07:53:31.763Z,9.36
2017-11-09T07:54:12.325Z,9.4
2017-11-09T07:54:52.881Z,9.4
2017-11-09T07:55:33.459Z,9.36
2017-11-09T07:56:14.023Z,9.36
2017-11-09T07:56:54.595Z,9.29
2017-11-09T07:57:35.196Z,9.19
2017-11-09T07:58:15.892Z,9.18
2017-11-09T07:58:56.477Z,9.23
2017-11-09T07:59:37.043Z,9.19
2017-11-09T08:00:17.616Z,9.06
2017-11-09T08:00:58.209Z,9.1
2017-11-09T08:01:38.786Z,9.13
2017-11-09T08:02:19.351Z,9.1
2017-11-09T08:02:59.926Z,9.13
2017-11-09T08:03:40.498Z,9.04
2017-11-09T08:04:21.063Z,8.99
2017-11-09T08:05:01.645Z,9.1
2017-11-09T08:05:42.197Z,8.94
2017-11-09T08:06:22.804Z,8.91
2017-11-09T08:07:03.372Z,8.92
2017-11-09T08:07:43.951Z,8.95
2017-11-09T08:08:24.500Z,9.02
2017-11-09T08:09:05.094Z,8.95
2017-11-09T08:09:45.645Z,8.89
2017-11-09T08:10:26.221Z,8.97
2017-11-09T08:11:06.850Z,8.91
2017-11-09T08:11:47.453Z,8.94
2017-11-09T08:12:28.111Z,8.87
2017-11-09T08:13:08.662Z,8.87
2017-11-09T08:13:49.223Z,8.74
2017-11-09T08:14:29.922Z,8.79
2017-11-09T08:15:10.496Z,8.78
2017-11-09T08:15:51.071Z,8.76
2017-11-09T08:16:31.650Z,8.69
2017-11-09T08:17:12.243Z,8.67
2017-11-09T08:17:53.008Z,8.67
2017-11-09T08:18:33.585Z,8.7
2017-11-09T08:19:14.194Z,8.66
2017-11-09T08:19:54.776Z,8.66
2017-11-09T08:20:35.340Z,8.64
2017-11-09T08:21:15.931Z,8.69
2017-11-09T08:21:56.548Z,8.69
2017-11-09T08:22:37.090Z,8.63
2017-11-09T08:23:17.685Z,8.63
2017-11-09T08:23:58.259Z,8.67
2017-11-09T08:24:38.833Z,8.7
2017-11-09T08:25:19.438Z,8.67
2017-11-09T08:26:00.013Z,8.78
2017-11-09T08:26:40.576Z,8.7
2017-11-09T08:27:21.226Z,8.7
2017-11-09T08:28:02.600Z,8.71
2017-11-09T08:28:43.340Z,8.73
2017-11-09T08:29:23.942Z,8.73
2017-11-09T08:30:04.553Z,8.7
2017-11-09T08:30:45.155Z,8.64
2017-11-09T08:31:25.750Z,8.61
2017-11-09T08:32:06.311Z,8.67
2017-11-09T08:32:46.888Z,8.63
2017-11-09T08:33:27.538Z,8.61
2017-11-09T08:34:08.344Z,8.61
2017-11-09T08:34:48.965Z,8.49
2017-11-09T08:35:29.609Z,8.53
2017-11-09T08:36:10.186Z,8.52
2017-11-09T08:36:50.752Z,8.52
2017-11-09T08:37:31.336Z,8.48
2017-11-09T08:38:11.949Z,8.48
2017-11-09T08:38:52.538Z,8.44
2017-11-09T08:39:33.096Z,8.48
2017-11-09T08:40:13.661Z,8.48
2017-11-09T08:40:54.220Z,8.42
2017-11-09T08:41:34.811Z,8.37
2017-11-09T08:42:15.364Z,8.42
2017-11-09T08:42:55.926Z,8.41
2017-11-09T08:43:36.499Z,8.38
2017-11-09T08:44:17.087Z,8.33
2017-11-09T08:44:57.688Z,8.36
2017-11-09T08:45:38.264Z,8.44
2017-11-09T08:46:18.825Z,8.37
2017-11-09T08:46:59.402Z,8.38
2017-11-09T08:47:39.956Z,8.34
2017-11-09T08:48:20.525Z,8.41
2017-11-09T08:49:01.100Z,8.36
2017-11-09T08:49:41.687Z,8.36
2017-11-09T08:50:22.262Z,8.38
2017-11-09T08:51:02.846Z,8.31
2017-11-09T08:51:43.401Z,8.36
2017-11-09T08:52:24.006Z,8.27
2017-11-09T08:53:04.577Z,8.27
2017-11-09T08:53:45.157Z,8.24
2017-11-09T08:54:25.744Z,8.19
2017-11-09T08:55:06.307Z,8.19
2017-11-09T08:55:46.854Z,8.2
2017-11-09T08:56:27.428Z,8.15
2017-11-09T08:57:08.009Z,8.12
2017-11-09T08:57:48.576Z,8.23
2017-11-09T08:58:29.158Z,8.13
2017-11-09T08:59:09.724Z,8.13
2017-11-09T08:59:50.350Z,8.06
2017-11-09T09:00:30.922Z,8.12